createdAt,value
2023-05-16T08:37:52.258Z,50.27
2023-05-16T08:38:13.877Z,49.74
2023-05-16T08:38:34.493Z,49.15
2023-05-16T08:38:55.112Z,48.85
2023-05-16T08:39:15.829Z,48.75
2023-05-16T08:39:36.434Z,50.02
2023-05-16T08:39:57.056Z,48.82
2023-05-16T08:40:18.830Z,48.40
2023-05-16T08:40:38.450Z,48.00
2023-05-16T08:40:59.101Z,47.98
2023-05-16T08:41:19.725Z,47.78
2023-05-16T08:41:40.573Z,47.38
2023-05-16T08:42:01.422Z,47.28
2023-05-16T08:42:22.086Z,47.08
2023-05-16T08:42:43.481Z,47.26
2023-05-16T08:43:03.378Z,46.56
2023-05-16T08:43:24.026Z,46.46
2023-05-16T08:43:44.626Z,46.36
2023-05-16T08:44:06.225Z,46.36
2023-05-16T08:44:25.853Z,46.36
2023-05-16T08:44:46.483Z,46.16
2023-05-16T08:45:07.186Z,46.26
2023-05-16T08:45:28.018Z,46.26
2023-05-16T08:45:48.713Z,46.26
2023-05-16T08:46:09.352Z,46.28
2023-05-16T08:46:30.018Z,46.38
2023-05-16T08:46:50.837Z,46.38
2023-05-16T08:47:11.568Z,46.48
2023-05-16T08:47:32.389Z,46.56
2023-05-16T08:47:53.691Z,46.78
2023-05-16T08:48:13.830Z,46.58
2023-05-16T08:48:34.406Z,46.68
2023-05-16T08:48:55.049Z,46.78
2023-05-16T08:49:15.678Z,46.88
2023-05-16T08:49:36.284Z,46.78
2023-05-16T08:49:56.958Z,46.78
2023-05-16T08:50:17.608Z,46.68
2023-05-16T08:50:38.240Z,46.68
2023-05-16T08:50:59.056Z,46.78
2023-05-16T08:51:19.703Z,46.68
2023-05-16T08:51:40.343Z,46.68
2023-05-16T08:52:00.950Z,46.88
2023-05-16T08:52:21.546Z,47.08
2023-05-16T08:52:42.736Z,47.18
2023-05-16T08:53:02.831Z,47.08
2023-05-16T08:53:23.768Z,47.28
2023-05-16T08:53:44.083Z,47.28
2023-05-16T08:54:05.684Z,47.18
2023-05-16T08:54:27.362Z,47.28
2023-05-16T08:54:50.400Z,47.18
2023-05-16T08:55:10.937Z,47.18
2023-05-16T08:55:27.382Z,47.28
2023-05-16T08:55:47.660Z,47.28
2023-05-16T08:56:08.273Z,47.38
2023-05-16T08:56:28.870Z,47.38
2023-05-16T08:56:49.479Z,47.38
2023-05-16T08:57:10.105Z,47.38
2023-05-16T08:57:30.690Z,47.48
2023-05-16T08:57:51.277Z,47.38
2023-05-16T08:58:11.883Z,47.48
2023-05-16T08:58:32.531Z,47.48
2023-05-16T08:58:53.139Z,47.48
2023-05-16T08:59:13.840Z,47.48
2023-05-16T08:59:34.526Z,47.48
2023-05-16T08:59:55.807Z,47.48
2023-05-16T09:00:15.982Z,47.78
2023-05-16T09:00:36.615Z,47.58
2023-05-16T09:00:57.277Z,47.58
2023-05-16T09:01:17.994Z,47.58
2023-05-16T09:01:38.665Z,47.58
2023-05-16T09:01:59.284Z,47.58
2023-05-16T09:02:19.975Z,47.45
2023-05-16T09:02:40.792Z,47.56
2023-05-16T09:03:01.484Z,47.36
2023-05-16T09:03:22.173Z,47.26
2023-05-16T09:03:43.005Z,47.16
2023-05-16T09:04:03.710Z,47.16
2023-05-16T09:04:24.446Z,47.06
2023-05-16T09:04:45.078Z,47.06
2023-05-16T09:05:05.681Z,47.06
2023-05-16T09:05:26.467Z,47.06
2023-05-16T09:05:47.283Z,47.06
2023-05-16T09:06:08.458Z,47.03
2023-05-16T09:06:28.633Z,47.03
2023-05-16T09:06:49.225Z,47.03
2023-05-16T09:07:09.832Z,47.14
2023-05-16T09:07:30.452Z,47.14
2023-05-16T09:07:51.055Z,47.03
2023-05-16T09:08:11.659Z,47.33
2023-05-16T09:08:32.312Z,47.24
2023-05-16T09:08:52.924Z,47.24
2023-05-16T09:09:13.673Z,47.33
2023-05-16T09:09:34.324Z,47.33
2023-05-16T09:09:55.520Z,47.33
2023-05-16T09:10:15.676Z,47.44
2023-05-16T09:10:36.298Z,47.44
2023-05-16T09:10:56.986Z,47.53
2023-05-16T09:11:17.763Z,47.44
2023-05-16T09:11:39.049Z,47.44
2023-05-16T09:11:59.177Z,47.63
2023-05-16T09:12:19.835Z,47.63
2023-05-16T09:12:40.626Z,47.93
2023-05-16T09:13:01.244Z,47.53
2023-05-16T09:13:22.623Z,47.83
2023-05-16T09:13:42.704Z,47.44
2023-05-16T09:14:03.327Z,47.83
2023-05-16T09:14:23.937Z,47.53
2023-05-16T09:14:44.521Z,47.53
2023-05-16T09:15:05.108Z,47.74
2023-05-16T09:15:25.849Z,47.74
2023-05-16T09:15:46.520Z,47.63
2023-05-16T09:16:07.161Z,47.93
2023-05-16T09:16:27.781Z,47.74
2023-05-16T09:16:48.440Z,47.63
2023-05-16T09:17:11.633Z,47.93
2023-05-16T09:17:39.081Z,47.93
2023-05-16T09:17:50.660Z,49.13
2023-05-16T09:18:11.298Z,48.33
2023-05-16T09:18:31.986Z,47.93
2023-05-16T09:18:52.729Z,47.93
2023-05-16T09:19:13.476Z,48.23
2023-05-16T09:19:34.142Z,48.43
2023-05-16T09:19:54.718Z,48.83
2023-05-16T09:20:15.555Z,48.63
2023-05-16T09:20:36.148Z,48.65
2023-05-16T09:20:56.804Z,48.75
2023-05-16T09:21:17.453Z,49.35
2023-05-16T09:21:38.063Z,49.55
2023-05-16T09:21:58.687Z,49.55
2023-05-16T09:22:19.292Z,49.95
2023-05-16T09:22:39.916Z,49.55
2023-05-16T09:23:00.538Z,49.75
2023-05-16T09:23:21.151Z,49.95
2023-05-16T09:23:41.780Z,49.45
2023-05-16T09:24:02.372Z,49.95
2023-05-16T09:24:23.008Z,50.15
2023-05-16T09:24:43.617Z,50.35
2023-05-16T09:25:05.718Z,50.25
2023-05-16T09:25:45.703Z,50.15
2023-05-16T09:26:06.370Z,50.35
2023-05-16T09:26:27.032Z,50.35
2023-05-16T09:26:47.663Z,50.25
2023-05-16T09:27:08.274Z,50.35
2023-05-16T09:27:28.917Z,50.05
2023-05-16T09:27:49.544Z,50.05
2023-05-16T09:28:10.131Z,50.15
2023-05-16T09:28:30.851Z,50.15
2023-05-16T09:28:51.524Z,49.85
2023-05-16T09:29:13.249Z,50.05
2023-05-16T09:29:33.472Z,50.25
2023-05-16T09:29:53.579Z,50.35
2023-05-16T09:30:14.257Z,49.95
2023-05-16T09:30:35.177Z,50.25
2023-05-16T09:30:55.441Z,49.95
2023-05-16T09:31:16.040Z,51.03
2023-05-16T09:31:36.780Z,50.02
2023-05-16T09:31:57.454Z,49.73
2023-05-16T09:32:18.067Z,50.02
2023-05-16T09:32:38.659Z,50.65
2023-05-16T09:32:59.637Z,50.43
2023-05-16T09:33:19.946Z,50.02
2023-05-16T09:33:40.636Z,49.73
2023-05-16T09:34:01.192Z,49.93
2023-05-16T09:34:21.769Z,49.93
2023-05-16T09:34:42.377Z,50.13
2023-05-16T09:35:02.993Z,49.83
2023-05-16T09:35:34.964Z,49.83
2023-05-16T09:35:48.080Z,50.52
2023-05-16T09:36:04.813Z,50.52
2023-05-16T09:36:25.429Z,50.23
2023-05-16T09:36:46.062Z,50.13
2023-05-16T09:37:06.630Z,50.73
2023-05-16T09:37:27.245Z,50.32
2023-05-16T09:37:47.844Z,50.02
2023-05-16T09:38:08.476Z,49.83
2023-05-16T09:38:29.092Z,49.83
2023-05-16T09:38:49.763Z,49.73
2023-05-16T09:39:11.069Z,49.73
2023-05-16T09:39:31.336Z,49.83
2023-05-16T09:39:51.914Z,50.02
2023-05-16T09:40:12.527Z,49.93
2023-05-16T09:40:33.181Z,50.52
2023-05-16T09:40:53.769Z,50.52
2023-05-16T09:41:14.383Z,50.13
2023-05-16T09:41:35.171Z,50.13
2023-05-16T09:41:55.848Z,50.13
2023-05-16T09:42:16.552Z,50.23
2023-05-16T09:42:37.123Z,50.23
2023-05-16T09:42:57.742Z,50.23
2023-05-16T09:43:18.644Z,50.23
2023-05-16T09:43:40.312Z,50.23
2023-05-16T09:43:59.366Z,50.40
2023-05-16T09:44:19.985Z,50.32
2023-05-16T09:44:40.581Z,50.30
2023-05-16T09:45:01.790Z,50.50
2023-05-16T09:45:21.884Z,50.20
2023-05-16T09:45:42.476Z,50.20
2023-05-16T09:46:03.134Z,50.20
2023-05-16T09:46:23.818Z,50.30
2023-05-16T09:46:44.494Z,50.30
2023-05-16T09:47:05.118Z,50.50
2023-05-16T09:47:25.778Z,50.40
2023-05-16T09:47:46.405Z,50.40
2023-05-16T09:48:07.176Z,50.30
2023-05-16T09:48:27.872Z,50.30
2023-05-16T09:48:48.485Z,50.20
2023-05-16T09:49:09.236Z,50.30
2023-05-16T09:49:29.933Z,50.30
2023-05-16T09:49:50.505Z,50.30
2023-05-16T09:50:11.119Z,50.30
2023-05-16T09:50:31.706Z,50.30
2023-05-16T09:50:52.545Z,50.30
2023-05-16T09:51:13.585Z,50.50
2023-05-16T09:51:33.716Z,50.40
2023-05-16T09:51:54.338Z,50.30
2023-05-16T09:52:15.615Z,50.50
2023-05-16T09:52:35.737Z,50.60
2023-05-16T09:52:56.390Z,50.60
2023-05-16T09:53:16.988Z,50.50
2023-05-16T09:53:37.602Z,50.30
2023-05-16T09:53:58.215Z,50.30
2023-05-16T09:54:18.809Z,50.30
2023-05-16T09:54:39.536Z,50.50
2023-05-16T09:55:00.096Z,50.50
2023-05-16T09:55:20.698Z,50.30
2023-05-16T09:55:41.312Z,50.30
2023-05-16T09:56:01.924Z,50.30
2023-05-16T09:56:22.528Z,50.50
2023-05-16T09:56:43.137Z,50.30
2023-05-16T09:57:03.749Z,50.60
2023-05-16T09:57:24.410Z,50.40
2023-05-16T09:57:44.999Z,50.40
2023-05-16T09:58:05.603Z,50.40
2023-05-16T09:58:26.224Z,50.30
2023-05-16T09:58:46.822Z,50.40
2023-05-16T09:59:07.447Z,50.40
2023-05-16T09:59:28.099Z,50.90
2023-05-16T09:59:48.734Z,50.50
2023-05-16T10:00:09.308Z,50.70
2023-05-16T10:00:30.052Z,50.90
2023-05-16T10:00:50.655Z,51.00
2023-05-16T10:01:11.298Z,51.40
2023-05-16T10:01:32.005Z,51.10
2023-05-16T10:01:52.622Z,51.00
2023-05-16T10:02:13.295Z,50.80
2023-05-16T10:02:33.957Z,51.10
2023-05-16T10:02:54.654Z,51.10
2023-05-16T10:03:15.373Z,51.29
2023-05-16T10:03:36.034Z,51.10
2023-05-16T10:03:56.842Z,51.40
2023-05-16T10:04:17.537Z,51.20
2023-05-16T10:04:38.204Z,51.50
2023-05-16T10:04:58.855Z,51.00
2023-05-16T10:05:19.487Z,50.90
2023-05-16T10:05:40.102Z,50.80
2023-05-16T10:06:00.698Z,50.80
2023-05-16T10:06:21.351Z,50.70
2023-05-16T10:06:41.970Z,50.70
2023-05-16T10:07:02.564Z,50.70
2023-05-16T10:07:23.223Z,50.60
2023-05-16T10:07:43.832Z,50.80
2023-05-16T10:08:04.417Z,51.00
2023-05-16T10:08:25.024Z,51.10
2023-05-16T10:08:45.712Z,50.80
2023-05-16T10:09:07.539Z,50.90
2023-05-16T10:09:27.194Z,51.10
2023-05-16T10:09:47.820Z,50.80
2023-05-16T10:10:08.455Z,50.70
2023-05-16T10:10:29.069Z,50.70
2023-05-16T10:10:49.676Z,50.80
2023-05-16T10:11:10.367Z,51.50
2023-05-16T10:11:30.992Z,51.29
2023-05-16T10:11:51.719Z,51.00
2023-05-16T10:12:12.341Z,51.10
2023-05-16T10:12:32.958Z,51.20
2023-05-16T10:12:53.581Z,51.10
2023-05-16T10:13:15.351Z,51.10
2023-05-16T10:13:35.348Z,51.00
2023-05-16T10:13:55.926Z,51.10
2023-05-16T10:14:16.544Z,50.60
2023-05-16T10:14:37.154Z,50.80
2023-05-16T10:14:57.760Z,50.80
2023-05-16T10:15:18.409Z,50.20
